^^
Station Historical Data
Daily Summary for December 6, 2017 Units:  Metric    English   Both
« Previous Day
Next Day »
Daily Weekly Monthly Yearly Custom
  High: Low: Average:
Temperature: 27.2 °C 15.6 °C 21.8 °C
Dew Point: 20.4 °C 15.6 °C 17.8 °C
Humidity: 100% 50% 80%
Wind Speed: 0km/h 0km/h 0km/h
Wind Gust: 0km/h - -
Wind- - North
Pressure: 1020.9 hPa 1016.8 hPa -
Precipitation: 0 mm    
Historical Graphs
 
 
Tabular Data for December 6, 2017
Time Temperature Dew Point Pressure Wind Wind Speed Wind Gust Humidity Rainfall Rate (Hourly) solar Conditions
00:04 18.9 °C 18.9 °C 1020.9 hPa Calm     100% 0 mm 0.0 W/m2 OVC
00:09 18.9 °C 18.9 °C 1020.9 hPa Calm     100% 0 mm 0.0 W/m2 OVC
00:14 18.9 °C 18.9 °C 1020.9 hPa Calm     100% 0 mm 0.0 W/m2 OVC
00:19 18.9 °C 18.9 °C 1020.9 hPa Calm     100% 0 mm 0.0 W/m2 OVC
00:24 18.9 °C 18.9 °C 1020.9 hPa Calm     100% 0 mm 0.0 W/m2 OVC
00:29 18.9 °C 18.9 °C 1020.9 hPa Calm     100% 0 mm 0.0 W/m2 OVC
00:34 18.9 °C 18.9 °C 1020.9 hPa Calm     100% 0 mm 0.0 W/m2 OVC
00:39 18.9 °C 18.9 °C 1020.9 hPa Calm     100% 0 mm 0.0 W/m2 OVC
00:44 18.9 °C 18.9 °C 1020.9 hPa Calm     100% 0 mm 0.0 W/m2 OVC
00:49 18.9 °C 18.9 °C 1020.9 hPa Calm     100% 0 mm 0.0 W/m2 OVC
00:54 18.9 °C 18.9 °C 1020.9 hPa Calm     100% 0 mm 0.0 W/m2 OVC
00:59 18.9 °C 18.9 °C 1020.9 hPa Calm     100% 0 mm 0.0 W/m2 OVC
01:04 19.4 °C 18.7 °C 1020.5 hPa Calm     96% 0 mm 0.0 W/m2 OVC
01:09 19.4 °C 18.7 °C 1020.5 hPa Calm     96% 0 mm 0.0 W/m2 OVC
01:14 19.4 °C 18.7 °C 1020.5 hPa Calm     96% 0 mm 0.0 W/m2 OVC
01:19 19.4 °C 18.7 °C 1020.5 hPa Calm     96% 0 mm 0.0 W/m2 OVC
01:24 19.4 °C 18.7 °C 1020.5 hPa Calm     96% 0 mm 0.0 W/m2 OVC
01:29 19.4 °C 18.7 °C 1020.5 hPa Calm     96% 0 mm 0.0 W/m2 OVC
01:34 19.4 °C 18.7 °C 1020.5 hPa Calm     96% 0 mm 0.0 W/m2 OVC
01:39 19.4 °C 18.7 °C 1020.5 hPa Calm     96% 0 mm 0.0 W/m2 OVC
01:44 19.4 °C 18.7 °C 1020.5 hPa Calm     96% 0 mm 0.0 W/m2 OVC
01:49 19.4 °C 18.7 °C 1020.5 hPa Calm     96% 0 mm 0.0 W/m2 OVC
01:54 19.4 °C 18.7 °C 1020.5 hPa Calm     96% 0 mm 0.0 W/m2 OVC
01:59 19.4 °C 18.7 °C 1020.5 hPa Calm     96% 0 mm 0.0 W/m2 OVC
02:02 19.4 °C 19.4 °C 1020.5 hPa Calm     100% 0 mm 0.0 W/m2 FEW
02:07 19.4 °C 19.4 °C 1020.5 hPa Calm     100% 0 mm 0.0 W/m2 FEW
02:12 19.4 °C 19.4 °C 1020.5 hPa Calm     100% 0 mm 0.0 W/m2 FEW
02:17 19.4 °C 19.4 °C 1020.5 hPa Calm     100% 0 mm 0.0 W/m2 FEW
02:22 19.4 °C 19.4 °C 1020.5 hPa Calm     100% 0 mm 0.0 W/m2 FEW
02:27 19.4 °C 19.4 °C 1020.5 hPa Calm     100% 0 mm 0.0 W/m2 FEW
02:32 19.4 °C 19.4 °C 1020.5 hPa Calm     100% 0 mm 0.0 W/m2 FEW
02:42 19.4 °C 19.4 °C 1020.5 hPa Calm     100% 0 mm 0.0 W/m2 FEW
02:47 19.4 °C 19.4 °C 1020.5 hPa Calm     100% 0 mm 0.0 W/m2 FEW
02:52 19.4 °C 19.4 °C 1020.5 hPa Calm     100% 0 mm 0.0 W/m2 FEW
02:57 19.4 °C 19.4 °C 1020.5 hPa Calm     100% 0 mm 0.0 W/m2 FEW
03:02 18.3 °C 18.3 °C 1020.2 hPa Calm     100% 0 mm 0.0 W/m2 CLR
03:07 18.3 °C 18.3 °C 1020.2 hPa Calm     100% 0 mm 0.0 W/m2 CLR
03:12 18.3 °C 18.3 °C 1020.2 hPa Calm     100% 0 mm 0.0 W/m2 CLR
03:17 18.3 °C 18.3 °C 1020.2 hPa Calm     100% 0 mm 0.0 W/m2 CLR
03:22 18.3 °C 18.3 °C 1020.2 hPa Calm     100% 0 mm 0.0 W/m2 CLR
03:27 18.3 °C 18.3 °C 1020.2 hPa Calm     100% 0 mm 0.0 W/m2 CLR
03:32 18.3 °C 18.3 °C 1020.2 hPa Calm     100% 0 mm 0.0 W/m2 CLR
03:37 18.3 °C 18.3 °C 1020.2 hPa Calm     100% 0 mm 0.0 W/m2 CLR
03:38 18.3 °C 18.3 °C 1020.2 hPa Calm     100% 0 mm 0.0 W/m2 CLR
03:43 18.3 °C 18.3 °C 1020.2 hPa Calm     100% 0 mm 0.0 W/m2 CLR
03:48 18.3 °C 18.3 °C 1020.2 hPa Calm     100% 0 mm 0.0 W/m2 CLR
03:53 18.3 °C 18.3 °C 1020.2 hPa Calm     100% 0 mm 0.0 W/m2 CLR
03:58 18.3 °C 18.3 °C 1020.2 hPa Calm     100% 0 mm 0.0 W/m2 CLR
04:03 17.8 °C 17.8 °C 1019.9 hPa Calm     100% 0 mm 0.0 W/m2 CLR
04:07 17.8 °C 17.8 °C 1019.9 hPa Calm     100% 0 mm 0.0 W/m2 CLR
04:13 17.8 °C 17.8 °C 1019.9 hPa Calm     100% 0 mm 0.0 W/m2 CLR
04:18 17.8 °C 17.8 °C 1019.9 hPa Calm     100% 0 mm 0.0 W/m2 CLR
04:22 17.8 °C 17.8 °C 1019.9 hPa Calm     100% 0 mm 0.0 W/m2 CLR
04:28 17.8 °C 17.8 °C 1019.9 hPa Calm     100% 0 mm 0.0 W/m2 CLR
04:33 16.7 °C 16.7 °C 1019.9 hPa Calm     100% 0 mm 0.0 W/m2 CLR
04:38 16.7 °C 16.7 °C 1019.9 hPa Calm     100% 0 mm 0.0 W/m2 CLR
04:43 16.7 °C 16.7 °C 1019.9 hPa Calm     100% 0 mm 0.0 W/m2 CLR
04:48 16.7 °C 16.7 °C 1019.9 hPa Calm     100% 0 mm 0.0 W/m2 CLR
04:53 16.7 °C 16.7 °C 1019.9 hPa Calm     100% 0 mm 0.0 W/m2 CLR
04:58 16.7 °C 16.7 °C 1019.9 hPa Calm     100% 0 mm 0.0 W/m2 CLR
05:03 17.8 °C 17.8 °C 1019.5 hPa Calm     100% 0 mm 0.0 W/m2 CLR
05:08 17.8 °C 17.8 °C 1019.5 hPa Calm     100% 0 mm 0.0 W/m2 CLR
05:13 17.8 °C 17.8 °C 1019.5 hPa Calm     100% 0 mm 0.0 W/m2 CLR
05:18 17.8 °C 17.8 °C 1019.5 hPa Calm     100% 0 mm 0.0 W/m2 CLR
05:23 17.8 °C 17.8 °C 1019.5 hPa Calm     100% 0 mm 0.0 W/m2 CLR
05:28 17.8 °C 17.8 °C 1019.5 hPa Calm     100% 0 mm 0.0 W/m2 CLR
05:33 17.8 °C 17.8 °C 1019.5 hPa Calm     100% 0 mm 0.0 W/m2 CLR
05:38 17.8 °C 17.8 °C 1019.5 hPa Calm     100% 0 mm 0.0 W/m2 CLR
05:43 17.8 °C 17.8 °C 1019.5 hPa Calm     100% 0 mm 0.0 W/m2 CLR
05:47 17.8 °C 17.8 °C 1019.5 hPa Calm     100% 0 mm 0.0 W/m2 CLR
05:53 17.8 °C 17.8 °C 1019.5 hPa Calm     100% 0 mm 0.0 W/m2 CLR
05:58 17.8 °C 17.8 °C 1019.5 hPa Calm     100% 0 mm 0.0 W/m2 CLR
06:02 17.2 °C 17.2 °C 1019.5 hPa Calm     100% 0 mm 0.0 W/m2 CLR
06:08 17.2 °C 17.2 °C 1019.5 hPa Calm     100% 0 mm 0.0 W/m2 CLR
06:12 17.2 °C 17.2 °C 1019.5 hPa Calm     100% 0 mm 0.0 W/m2 CLR
06:18 17.2 °C 17.2 °C 1019.5 hPa Calm     100% 0 mm 0.0 W/m2 CLR
06:23 17.2 °C 17.2 °C 1019.5 hPa Calm     100% 0 mm 0.0 W/m2 CLR
06:28 17.2 °C 17.2 °C 1019.5 hPa Calm     100% 0 mm 0.0 W/m2 CLR
06:33 17.2 °C 17.2 °C 1019.5 hPa Calm     100% 0 mm 0.0 W/m2 CLR
06:38 17.2 °C 17.2 °C 1019.5 hPa Calm     100% 0 mm 0.0 W/m2 CLR
06:43 17.2 °C 17.2 °C 1019.5 hPa Calm     100% 0 mm 0.0 W/m2 CLR
06:48 17.2 °C 17.2 °C 1019.5 hPa Calm     100% 0 mm 0.0 W/m2 CLR
06:52 17.2 °C 17.2 °C 1019.5 hPa Calm     100% 0 mm 0.0 W/m2 CLR
06:58 17.2 °C 17.2 °C 1019.5 hPa Calm     100% 0 mm 0.0 W/m2 CLR
07:03 15.6 °C 15.6 °C 1019.5 hPa Calm     100% 0 mm 0.0 W/m2 CLR
07:08 15.6 °C 15.6 °C 1019.5 hPa Calm     100% 0 mm 0.0 W/m2 CLR
07:13 15.6 °C 15.6 °C 1019.5 hPa Calm     100% 0 mm 0.0 W/m2 CLR
07:18 15.6 °C 15.6 °C 1019.5 hPa Calm     100% 0 mm 0.0 W/m2 CLR
07:23 15.6 °C 15.6 °C 1019.5 hPa Calm     100% 0 mm 0.0 W/m2 CLR
07:28 15.6 °C 15.6 °C 1019.5 hPa Calm     100% 0 mm 0.0 W/m2 CLR
07:33 15.6 °C 15.6 °C 1019.5 hPa Calm     100% 0 mm 0.0 W/m2 CLR
07:38 15.6 °C 15.6 °C 1019.5 hPa Calm     100% 0 mm 0.0 W/m2 CLR
07:43 15.6 °C 15.6 °C 1019.5 hPa Calm     100% 0 mm 0.0 W/m2 CLR
07:44 15.6 °C 15.6 °C 1019.5 hPa Calm     100% 0 mm 0.0 W/m2 CLR
07:49 15.6 °C 15.6 °C 1019.5 hPa Calm     100% 0 mm 0.0 W/m2 CLR
07:54 15.6 °C 15.6 °C 1019.5 hPa Calm     100% 0 mm 0.0 W/m2 CLR
07:59 15.6 °C 15.6 °C 1019.5 hPa Calm     100% 0 mm 0.0 W/m2 CLR
08:04 17.2 °C 17.2 °C 1019.5 hPa Calm     100% 0 mm 0.0 W/m2 CLR
08:09 17.2 °C 17.2 °C 1019.5 hPa Calm     100% 0 mm 0.0 W/m2 CLR
08:14 17.2 °C 17.2 °C 1019.5 hPa Calm     100% 0 mm 0.0 W/m2 CLR
08:19 17.2 °C 17.2 °C 1019.5 hPa Calm     100% 0 mm 0.0 W/m2 CLR
08:24 17.2 °C 17.2 °C 1019.5 hPa Calm     100% 0 mm 0.0 W/m2 CLR
08:29 17.2 °C 17.2 °C 1019.5 hPa Calm     100% 0 mm 0.0 W/m2 CLR
08:34 17.2 °C 17.2 °C 1019.5 hPa Calm     100% 0 mm 0.0 W/m2 CLR
08:39 17.2 °C 17.2 °C 1019.5 hPa Calm     100% 0 mm 0.0 W/m2 CLR
08:44 17.2 °C 17.2 °C 1019.5 hPa Calm     100% 0 mm 0.0 W/m2 CLR
08:49 17.2 °C 17.2 °C 1019.5 hPa Calm     100% 0 mm 0.0 W/m2 CLR
08:54 17.2 °C 17.2 °C 1019.5 hPa Calm     100% 0 mm 0.0 W/m2 CLR
08:59 17.2 °C 17.2 °C 1019.5 hPa Calm     100% 0 mm 0.0 W/m2 CLR
09:04 21.1 °C 20.4 °C 1019.9 hPa Calm     96% 0 mm 0.0 W/m2 CLR
09:09 21.1 °C 20.4 °C 1019.9 hPa Calm     96% 0 mm 0.0 W/m2 CLR
09:14 21.1 °C 20.4 °C 1019.9 hPa Calm     96% 0 mm 0.0 W/m2 CLR
09:19 21.1 °C 20.4 °C 1019.9 hPa Calm     96% 0 mm 0.0 W/m2 CLR
09:24 21.1 °C 20.4 °C 1019.9 hPa Calm     96% 0 mm 0.0 W/m2 CLR
09:29 21.1 °C 20.4 °C 1019.9 hPa Calm     96% 0 mm 0.0 W/m2 CLR
09:34 21.1 °C 20.4 °C 1019.9 hPa Calm     96% 0 mm 0.0 W/m2 CLR
09:39 21.1 °C 20.4 °C 1019.9 hPa Calm     96% 0 mm 0.0 W/m2 CLR
09:44 21.1 °C 20.4 °C 1019.9 hPa Calm     96% 0 mm 0.0 W/m2 CLR
09:49 21.1 °C 20.4 °C 1019.9 hPa Calm     96% 0 mm 0.0 W/m2 CLR
09:54 21.1 °C 20.4 °C 1019.9 hPa Calm     96% 0 mm 0.0 W/m2 CLR
09:59 21.1 °C 20.4 °C 1019.9 hPa Calm     96% 0 mm 0.0 W/m2 CLR
10:04 23.9 °C 19.8 °C 1020.5 hPa Calm     78% 0 mm 0.0 W/m2 CLR
10:09 23.9 °C 19.8 °C 1020.5 hPa Calm     78% 0 mm 0.0 W/m2 CLR
10:10 23.9 °C 19.8 °C 1020.5 hPa Calm     78% 0 mm 0.0 W/m2 CLR
10:15 23.9 °C 19.8 °C 1020.5 hPa Calm     78% 0 mm 0.0 W/m2 CLR
10:20 23.9 °C 19.8 °C 1020.5 hPa Calm     78% 0 mm 0.0 W/m2 CLR
10:25 23.9 °C 19.8 °C 1020.5 hPa Calm     78% 0 mm 0.0 W/m2 CLR
10:30 23.9 °C 19.8 °C 1020.5 hPa Calm     78% 0 mm 0.0 W/m2 CLR
10:35 23.9 °C 19.8 °C 1020.5 hPa Calm     78% 0 mm 0.0 W/m2 CLR
10:40 23.9 °C 19.8 °C 1020.5 hPa Calm     78% 0 mm 0.0 W/m2 CLR
10:45 23.9 °C 19.8 °C 1020.5 hPa Calm     78% 0 mm 0.0 W/m2 CLR
10:50 23.9 °C 19.8 °C 1020.5 hPa Calm     78% 0 mm 0.0 W/m2 CLR
10:55 23.9 °C 19.8 °C 1020.5 hPa Calm     78% 0 mm 0.0 W/m2 CLR
11:00 23.9 °C 19.8 °C 1020.5 hPa Calm     78% 0 mm 0.0 W/m2 CLR
11:05 25.6 °C 19.3 °C 1019.9 hPa Calm     68% 0 mm 0.0 W/m2 CLR
11:10 25.6 °C 19.3 °C 1019.9 hPa Calm     68% 0 mm 0.0 W/m2 CLR
11:15 25.6 °C 19.3 °C 1019.9 hPa Calm     68% 0 mm 0.0 W/m2 CLR
11:20 25.6 °C 19.3 °C 1019.9 hPa Calm     68% 0 mm 0.0 W/m2 CLR
11:25 25.6 °C 19.3 °C 1019.9 hPa Calm     68% 0 mm 0.0 W/m2 CLR
11:30 25.6 °C 19.3 °C 1019.9 hPa Calm     68% 0 mm 0.0 W/m2 CLR
11:35 25.6 °C 19.3 °C 1019.9 hPa Calm     68% 0 mm 0.0 W/m2 CLR
11:40 25.6 °C 19.3 °C 1019.9 hPa Calm     68% 0 mm 0.0 W/m2 CLR
11:45 25.6 °C 19.3 °C 1019.9 hPa Calm     68% 0 mm 0.0 W/m2 CLR
11:50 25.6 °C 19.3 °C 1019.9 hPa Calm     68% 0 mm 0.0 W/m2 CLR
11:55 25.6 °C 19.3 °C 1019.9 hPa Calm     68% 0 mm 0.0 W/m2 CLR
12:00 25.6 °C 19.3 °C 1019.9 hPa Calm     68% 0 mm 0.0 W/m2 CLR
12:05 26.1 °C 18.8 °C 1019.2 hPa Calm     64% 0 mm 0.0 W/m2 FEW
12:10 26.1 °C 18.8 °C 1019.2 hPa Calm     64% 0 mm 0.0 W/m2 FEW
12:15 26.1 °C 18.8 °C 1019.2 hPa Calm     64% 0 mm 0.0 W/m2 FEW
12:20 26.1 °C 18.8 °C 1019.2 hPa Calm     64% 0 mm 0.0 W/m2 FEW
12:25 26.1 °C 18.8 °C 1019.2 hPa Calm     64% 0 mm 0.0 W/m2 FEW
12:30 26.1 °C 18.8 °C 1019.2 hPa Calm     64% 0 mm 0.0 W/m2 FEW
12:31 26.1 °C 18.8 °C 1019.2 hPa Calm     64% 0 mm 0.0 W/m2 FEW
12:36 26.1 °C 18.8 °C 1019.2 hPa Calm     64% 0 mm 0.0 W/m2 FEW
12:41 26.1 °C 18.8 °C 1019.2 hPa Calm     64% 0 mm 0.0 W/m2 FEW
12:46 26.1 °C 18.8 °C 1019.2 hPa Calm     64% 0 mm 0.0 W/m2 FEW
12:51 26.1 °C 18.8 °C 1019.2 hPa Calm     64% 0 mm 0.0 W/m2 FEW
12:56 26.1 °C 18.8 °C 1019.2 hPa Calm     64% 0 mm 0.0 W/m2 FEW
13:01 26.1 °C 18.8 °C 1019.2 hPa Calm     64% 0 mm 0.0 W/m2 FEW
13:06 26.7 °C 18.3 °C 1017.8 hPa Calm     60% 0 mm 0.0 W/m2 FEW
13:11 26.7 °C 18.3 °C 1017.8 hPa Calm     60% 0 mm 0.0 W/m2 FEW
13:16 26.7 °C 18.3 °C 1017.8 hPa Calm     60% 0 mm 0.0 W/m2 FEW
13:21 26.7 °C 18.3 °C 1017.8 hPa Calm     60% 0 mm 0.0 W/m2 FEW
13:26 26.7 °C 18.3 °C 1017.8 hPa Calm     60% 0 mm 0.0 W/m2 FEW
13:31 26.7 °C 18.3 °C 1017.8 hPa Calm     60% 0 mm 0.0 W/m2 FEW
13:36 26.7 °C 18.3 °C 1017.8 hPa Calm     60% 0 mm 0.0 W/m2 FEW
13:41 26.7 °C 18.3 °C 1017.8 hPa Calm     60% 0 mm 0.0 W/m2 FEW
13:46 26.7 °C 18.3 °C 1017.8 hPa Calm     60% 0 mm 0.0 W/m2 FEW
13:51 26.7 °C 18.3 °C 1017.8 hPa Calm     60% 0 mm 0.0 W/m2 FEW
13:56 26.7 °C 18.3 °C 1017.8 hPa Calm     60% 0 mm 0.0 W/m2 FEW
14:01 26.7 °C 18.3 °C 1017.8 hPa Calm     60% 0 mm 0.0 W/m2 FEW
14:06 27.2 °C 17.1 °C 1017.2 hPa Calm     54% 0 mm 0.0 W/m2 FEW
14:11 27.2 °C 17.1 °C 1017.2 hPa Calm     54% 0 mm 0.0 W/m2 FEW
14:16 27.2 °C 17.1 °C 1017.2 hPa Calm     54% 0 mm 0.0 W/m2 FEW
14:21 27.2 °C 17.1 °C 1017.2 hPa Calm     54% 0 mm 0.0 W/m2 FEW
14:26 27.2 °C 17.1 °C 1017.2 hPa Calm     54% 0 mm 0.0 W/m2 FEW
14:31 27.2 °C 17.1 °C 1017.2 hPa Calm     54% 0 mm 0.0 W/m2 FEW
14:36 27.2 °C 17.1 °C 1017.2 hPa Calm     54% 0 mm 0.0 W/m2 FEW
14:41 27.2 °C 17.1 °C 1017.2 hPa Calm     54% 0 mm 0.0 W/m2 FEW
14:46 27.2 °C 17.1 °C 1017.2 hPa Calm     54% 0 mm 0.0 W/m2 FEW
14:51 27.2 °C 17.1 °C 1017.2 hPa Calm     54% 0 mm 0.0 W/m2 FEW
14:56 27.2 °C 17.1 °C 1017.2 hPa Calm     54% 0 mm 0.0 W/m2 FEW
15:01 27.2 °C 17.1 °C 1017.2 hPa Calm     54% 0 mm 0.0 W/m2 FEW
15:06 27.2 °C 16.5 °C 1016.8 hPa Calm     52% 0 mm 0.0 W/m2 SCT
15:11 27.2 °C 16.5 °C 1016.8 hPa Calm     52% 0 mm 0.0 W/m2 SCT
15:16 27.2 °C 16.5 °C 1016.8 hPa Calm     52% 0 mm 0.0 W/m2 SCT
15:21 27.2 °C 16.5 °C 1016.8 hPa Calm     52% 0 mm 0.0 W/m2 SCT
15:26 27.2 °C 16.5 °C 1016.8 hPa Calm     52% 0 mm 0.0 W/m2 SCT
15:31 27.2 °C 16.5 °C 1016.8 hPa Calm     52% 0 mm 0.0 W/m2 SCT
15:36 27.2 °C 16.5 °C 1016.8 hPa Calm     52% 0 mm 0.0 W/m2 SCT
15:41 27.2 °C 16.5 °C 1016.8 hPa Calm     52% 0 mm 0.0 W/m2 SCT
15:46 27.2 °C 16.5 °C 1016.8 hPa Calm     52% 0 mm 0.0 W/m2 SCT
15:51 27.2 °C 16.5 °C 1016.8 hPa Calm     52% 0 mm 0.0 W/m2 SCT
15:56 27.2 °C 16.5 °C 1016.8 hPa Calm     52% 0 mm 0.0 W/m2 SCT
16:01 27.2 °C 15.9 °C 1016.8 hPa Calm     50% 0 mm 0.0 W/m2 CLR
16:06 27.2 °C 15.9 °C 1016.8 hPa Calm     50% 0 mm 0.0 W/m2 CLR
16:11 27.2 °C 15.9 °C 1016.8 hPa Calm     50% 0 mm 0.0 W/m2 CLR
16:16 27.2 °C 15.9 °C 1016.8 hPa Calm     50% 0 mm 0.0 W/m2 CLR
16:21 27.2 °C 15.9 °C 1016.8 hPa Calm     50% 0 mm 0.0 W/m2 CLR
16:26 27.2 °C 15.9 °C 1016.8 hPa Calm     50% 0 mm 0.0 W/m2 CLR
16:31 27.2 °C 15.9 °C 1016.8 hPa Calm     50% 0 mm 0.0 W/m2 CLR
16:36 27.2 °C 15.9 °C 1016.8 hPa Calm     50% 0 mm 0.0 W/m2 CLR
16:41 27.2 °C 15.9 °C 1016.8 hPa Calm     50% 0 mm 0.0 W/m2 CLR
16:46 27.2 °C 15.9 °C 1016.8 hPa Calm     50% 0 mm 0.0 W/m2 CLR
16:51 27.2 °C 15.9 °C 1016.8 hPa Calm     50% 0 mm 0.0 W/m2 CLR
16:56 27.2 °C 15.9 °C 1016.8 hPa Calm     50% 0 mm 0.0 W/m2 CLR
17:01 26.1 °C 16.6 °C 1016.8 hPa Calm     56% 0 mm 0.0 W/m2 CLR
17:06 26.1 °C 16.6 °C 1016.8 hPa Calm     56% 0 mm 0.0 W/m2 CLR
17:11 26.1 °C 16.6 °C 1016.8 hPa Calm     56% 0 mm 0.0 W/m2 CLR
17:16 26.1 °C 16.6 °C 1016.8 hPa Calm     56% 0 mm 0.0 W/m2 CLR
17:21 26.1 °C 16.6 °C 1016.8 hPa Calm     56% 0 mm 0.0 W/m2 CLR
17:26 26.1 °C 16.6 °C 1016.8 hPa Calm     56% 0 mm 0.0 W/m2 CLR
17:31 26.1 °C 16.6 °C 1016.8 hPa Calm     56% 0 mm 0.0 W/m2 CLR
17:36 26.1 °C 16.6 °C 1016.8 hPa Calm     56% 0 mm 0.0 W/m2 CLR
17:41 26.1 °C 16.6 °C 1016.8 hPa Calm     56% 0 mm 0.0 W/m2 CLR
17:46 26.1 °C 16.6 °C 1016.8 hPa Calm     56% 0 mm 0.0 W/m2 CLR
17:51 26.1 °C 16.6 °C 1016.8 hPa Calm     56% 0 mm 0.0 W/m2 CLR
17:56 26.1 °C 16.6 °C 1016.8 hPa Calm     56% 0 mm 0.0 W/m2 CLR
18:01 25 °C 16.4 °C 1016.8 hPa Calm     59% 0 mm 0.0 W/m2 CLR
18:06 25 °C 16.4 °C 1016.8 hPa Calm     59% 0 mm 0.0 W/m2 CLR
18:11 25 °C 16.4 °C 1016.8 hPa Calm     59% 0 mm 0.0 W/m2 CLR
18:16 25 °C 16.4 °C 1016.8 hPa Calm     59% 0 mm 0.0 W/m2 CLR
18:21 25 °C 16.4 °C 1016.8 hPa Calm     59% 0 mm 0.0 W/m2 CLR
18:26 25 °C 16.4 °C 1016.8 hPa Calm     59% 0 mm 0.0 W/m2 CLR
18:31 25 °C 16.4 °C 1016.8 hPa Calm     59% 0 mm 0.0 W/m2 CLR
18:36 25 °C 16.4 °C 1016.8 hPa Calm     59% 0 mm 0.0 W/m2 CLR
18:41 25 °C 16.4 °C 1016.8 hPa Calm     59% 0 mm 0.0 W/m2 CLR
18:46 25 °C 16.4 °C 1016.8 hPa Calm     59% 0 mm 0.0 W/m2 CLR
18:51 25 °C 16.4 °C 1016.8 hPa Calm     59% 0 mm 0.0 W/m2 CLR
18:56 25 °C 16.4 °C 1016.8 hPa Calm     59% 0 mm 0.0 W/m2 CLR
19:01 22.8 °C 17.1 °C 1017.2 hPa Calm     70% 0 mm 0.0 W/m2 CLR
19:06 22.8 °C 17.1 °C 1017.2 hPa Calm     70% 0 mm 0.0 W/m2 CLR
19:11 22.8 °C 17.1 °C 1017.2 hPa Calm     70% 0 mm 0.0 W/m2 CLR
19:16 22.8 °C 17.1 °C 1017.2 hPa Calm     70% 0 mm 0.0 W/m2 CLR
19:21 22.8 °C 17.1 °C 1017.2 hPa Calm     70% 0 mm 0.0 W/m2 CLR
19:26 22.8 °C 17.1 °C 1017.2 hPa Calm     70% 0 mm 0.0 W/m2 CLR
19:31 22.8 °C 17.1 °C 1017.2 hPa Calm     70% 0 mm 0.0 W/m2 CLR
19:36 22.8 °C 17.1 °C 1017.2 hPa Calm     70% 0 mm 0.0 W/m2 CLR
19:41 22.8 °C 17.1 °C 1017.2 hPa Calm     70% 0 mm 0.0 W/m2 CLR
19:46 22.8 °C 17.1 °C 1017.2 hPa Calm     70% 0 mm 0.0 W/m2 CLR
19:51 22.8 °C 17.1 °C 1017.2 hPa Calm     70% 0 mm 0.0 W/m2 CLR
19:56 22.8 °C 17.1 °C 1017.2 hPa Calm     70% 0 mm 0.0 W/m2 CLR
20:01 22.8 °C 17.7 °C 1017.5 hPa Calm     73% 0 mm 0.0 W/m2 CLR
20:06 22.8 °C 17.7 °C 1017.5 hPa Calm     73% 0 mm 0.0 W/m2 CLR
20:11 22.8 °C 17.7 °C 1017.5 hPa Calm     73% 0 mm 0.0 W/m2 CLR
20:16 22.8 °C 17.7 °C 1017.5 hPa Calm     73% 0 mm 0.0 W/m2 CLR
20:21 22.8 °C 17.7 °C 1017.5 hPa Calm     73% 0 mm 0.0 W/m2 CLR
20:26 22.8 °C 17.7 °C 1017.5 hPa Calm     73% 0 mm 0.0 W/m2 CLR
20:31 22.8 °C 17.7 °C 1017.5 hPa Calm     73% 0 mm 0.0 W/m2 CLR
20:36 22.8 °C 17.7 °C 1017.5 hPa Calm     73% 0 mm 0.0 W/m2 CLR
20:41 22.8 °C 17.7 °C 1017.5 hPa Calm     73% 0 mm 0.0 W/m2 CLR
20:46 22.8 °C 17.7 °C 1017.5 hPa Calm     73% 0 mm 0.0 W/m2 CLR
20:51 22.8 °C 17.7 °C 1017.5 hPa Calm     73% 0 mm 0.0 W/m2 CLR
20:56 22.8 °C 17.7 °C 1017.5 hPa Calm     73% 0 mm 0.0 W/m2 CLR
21:01 21.7 °C 17.1 °C 1017.5 hPa Calm     75% 0 mm 0.0 W/m2 CLR
21:06 21.7 °C 17.1 °C 1017.5 hPa Calm     75% 0 mm 0.0 W/m2 CLR
21:11 21.7 °C 17.1 °C 1017.5 hPa Calm     75% 0 mm 0.0 W/m2 CLR
21:16 21.7 °C 17.1 °C 1017.5 hPa Calm     75% 0 mm 0.0 W/m2 CLR
21:21 21.7 °C 17.1 °C 1017.5 hPa Calm     75% 0 mm 0.0 W/m2 CLR
21:26 21.7 °C 17.1 °C 1017.5 hPa Calm     75% 0 mm 0.0 W/m2 CLR
21:31 21.7 °C 17.1 °C 1017.5 hPa Calm     75% 0 mm 0.0 W/m2 CLR
21:36 21.7 °C 17.1 °C 1017.5 hPa Calm     75% 0 mm 0.0 W/m2 CLR
21:41 21.7 °C 17.1 °C 1017.5 hPa Calm     75% 0 mm 0.0 W/m2 CLR
21:46 21.7 °C 17.1 °C 1017.5 hPa Calm     75% 0 mm 0.0 W/m2 CLR
21:51 21.7 °C 17.1 °C 1017.5 hPa Calm     75% 0 mm 0.0 W/m2 CLR
21:56 21.7 °C 17.1 °C 1017.5 hPa Calm     75% 0 mm 0.0 W/m2 CLR
22:01 20 °C 17 °C 1017.8 hPa Calm     83% 0 mm 0.0 W/m2 CLR
22:06 20 °C 17 °C 1017.8 hPa Calm     83% 0 mm 0.0 W/m2 CLR
22:12 20 °C 17 °C 1017.8 hPa Calm     83% 0 mm 0.0 W/m2 CLR
22:17 20 °C 17 °C 1017.8 hPa Calm     83% 0 mm 0.0 W/m2 CLR
22:22 20 °C 17 °C 1017.8 hPa Calm     83% 0 mm 0.0 W/m2 CLR
22:23 20 °C 17 °C 1017.8 hPa Calm     83% 0 mm 0.0 W/m2 CLR
22:28 20 °C 17 °C 1017.8 hPa Calm     83% 0 mm 0.0 W/m2 CLR
22:33 20 °C 17 °C 1017.8 hPa Calm     83% 0 mm 0.0 W/m2 CLR
22:38 20 °C 17 °C 1017.8 hPa Calm     83% 0 mm 0.0 W/m2 CLR
22:43 20 °C 17 °C 1017.8 hPa Calm     83% 0 mm 0.0 W/m2 CLR
22:48 20 °C 17 °C 1017.8 hPa Calm     83% 0 mm 0.0 W/m2 CLR
22:53 20 °C 17 °C 1017.8 hPa Calm     83% 0 mm 0.0 W/m2 CLR
22:58 20 °C 17 °C 1017.8 hPa Calm     83% 0 mm 0.0 W/m2 CLR
23:03 19.4 °C 17.7 °C 1017.8 hPa Calm     90% 0 mm 0.0 W/m2 CLR
23:08 19.4 °C 17.7 °C 1017.8 hPa Calm     90% 0 mm 0.0 W/m2 CLR
23:13 19.4 °C 17.7 °C 1017.8 hPa Calm     90% 0 mm 0.0 W/m2 CLR
23:18 19.4 °C 17.7 °C 1017.8 hPa Calm     90% 0 mm 0.0 W/m2 CLR
23:23 19.4 °C 17.7 °C 1017.8 hPa Calm     90% 0 mm 0.0 W/m2 CLR
23:28 19.4 °C 17.7 °C 1017.8 hPa Calm     90% 0 mm 0.0 W/m2 CLR
23:33 19.4 °C 17.7 °C 1017.8 hPa Calm     90% 0 mm 0.0 W/m2 CLR
23:38 19.4 °C 17.7 °C 1017.8 hPa Calm     90% 0 mm 0.0 W/m2 CLR
23:43 19.4 °C 17.7 °C 1017.8 hPa Calm     90% 0 mm 0.0 W/m2 CLR
23:48 19.4 °C 17.7 °C 1017.8 hPa Calm     90% 0 mm 0.0 W/m2 SCT
23:53 19.4 °C 17.7 °C 1017.8 hPa Calm     90% 0 mm 0.0 W/m2 SCT
23:58 19.4 °C 17.7 °C 1017.8 hPa Calm     90% 0 mm 0.0 W/m2 SCT
Lake Mary, FL, USA
Compliments of Weather Underground - 1.75 mb